Aviation Digital Data Service (ADDS)

Output produced by TAFs form (1625 UTC 22 June 2017)
found at http://aviationweather.gov/adds/tafs/
 
KELP 221129Z 2212/2312 VRB04KT P6SM FEW050 SCT110 BKN220 
     FM221700 26008KT P6SM FEW140 SCT250 
     FM222200 29011G17KT P6SM FEW100 SCT150 
     FM230300 30010KT P6SM SCT150